ADDS METAR Data INFO
IDs: Format: Raw Decoded Include TAF

Data at: 0711 UTC 19 Oct 2017

KMLJ 190636Z AUTO 00000KT 10SM CLR 11/08 A3027 RMK AO2
KMLJ 190615Z AUTO 00000KT 10SM CLR 11/08 A3028 RMK AO2
KMLJ 190535Z AUTO 00000KT 10SM CLR 14/08 A3027 RMK AO2
KMLJ 190515Z AUTO 09004KT 10SM CLR 14/08 A3027 RMK AO2
KMLJ 190455Z AUTO 12003KT 10SM CLR 14/08 A3027 RMK AO2
KMLJ 190415Z AUTO 10003KT 10SM CLR 13/09 A3029 RMK AO2
KMLJ 190355Z AUTO 09003KT 10SM CLR 13/09 A3029 RMK AO2
KMLJ 190335Z AUTO 00000KT 10SM CLR 14/09 A3030 RMK AO2
KMLJ 190315Z AUTO 09003KT 10SM CLR 13/09 A3030 RMK AO2
KMLJ 190235Z AUTO 00000KT 10SM CLR 13/09 A3030 RMK AO2
KMLJ 190216Z AUTO 00000KT 10SM CLR 13/10 A3030 RMK AO2
KMLJ 190056Z AUTO 00000KT 10SM CLR 13/10 A3029 RMK AO2
KMLJ 190035Z AUTO 00000KT 10SM CLR 14/10 A3029 RMK AO2
KMLJ 190015Z AUTO 00000KT 10SM CLR 14/10 A3028 RMK AO2
KMLJ 182356Z AUTO 05003KT 10SM CLR 18/09 A3028 RMK AO2
KMLJ 182335Z AUTO 00000KT 10SM CLR 17/10 A3027 RMK AO2
KMLJ 182316Z AUTO 00000KT 10SM CLR 18/09 A3027 RMK AO2
KMLJ 182255Z AUTO 05003KT 10SM CLR 20/08 A3026 RMK AO2
KMLJ 182235Z AUTO 06003KT 10SM CLR 21/08 A3026 RMK AO2
KMLJ 182156Z AUTO 04004KT 10SM CLR 22/07 A3026 RMK AO2
KMLJ 182135Z AUTO 06004KT 10SM CLR 22/07 A3025 RMK AO2
KMLJ 182055Z AUTO 04006KT 10SM CLR 23/07 A3026 RMK AO2
KMLJ 182035Z AUTO 36005KT 10SM CLR 23/07 A3025 RMK AO2
KMLJ 181955Z AUTO 07005KT 10SM CLR 23/07 A3026 RMK AO2
KMLJ 181935Z AUTO 07003KT 10SM CLR 23/06 A3027 RMK AO2
KMLJ 181857Z AUTO 06005KT 10SM CLR 23/06 A3027 RMK AO2
KMLJ 181835Z AUTO 07004KT 10SM CLR 23/06 A3028 RMK AO2
KMLJ 181715Z AUTO 10006KT 10SM CLR 21/06 A3032 RMK AO2
KMLJ 181655Z AUTO 06008KT 10SM CLR 21/06 A3033 RMK AO2
KMLJ 181635Z AUTO 07003KT 10SM CLR 20/06 A3034 RMK AO2
KMLJ 181616Z AUTO 08006KT 10SM CLR 20/06 A3035 RMK AO2
KMLJ 181535Z AUTO 08008KT 10SM CLR 19/06 A3036 RMK AO2
KMLJ 181515Z AUTO 08007KT 10SM CLR 18/07 A3036 RMK AO2
KMLJ 181456Z AUTO 06006KT 10SM CLR 17/08 A3036 RMK AO2
KMLJ 181335Z AUTO 07004KT 10SM CLR 13/08 A3035 RMK AO2
KMLJ 181255Z AUTO 07003KT 10SM CLR 12/08 A3034 RMK AO2
KMLJ 181235Z AUTO 08004KT 10SM CLR 11/08 A3034 RMK AO2
KMLJ 181155Z AUTO 00000KT 10SM CLR 08/07 A3032 RMK AO2
KMLJ 181136Z AUTO 00000KT 10SM CLR 08/07 A3032 RMK AO2
KMLJ 181115Z AUTO 00000KT 10SM CLR 08/07 A3032 RMK AO2
KMLJ 181055Z AUTO 00000KT 10SM CLR 08/07 A3032 RMK AO2
KMLJ 181035Z AUTO 00000KT 10SM CLR 08/07 A3031 RMK AO2
KMLJ 180955Z AUTO 00000KT 10SM CLR 08/07 A3030 RMK AO2
KMLJ 180915Z AUTO 00000KT 10SM CLR 08/08 A3029 RMK AO2
KMLJ 180835Z AUTO 00000KT 10SM CLR 09/08 A3028 RMK AO2
KMLJ 180816Z AUTO 00000KT 10SM CLR 09/08 A3028 RMK AO2
KMLJ 180756Z AUTO 02003KT 10SM CLR 09/08 A3029 RMK AO2
KMLJ 180735Z AUTO 00000KT 10SM CLR 09/08 A3029 RMK AO2
KMLJ 180715Z AUTO 00000KT 10SM CLR 09/08 A3028 RMK AO2
KMLJ 180555Z AUTO 00000KT 10SM CLR 10/08 A3029 RMK AO2
KMLJ 180536Z AUTO 00000KT 10SM CLR 11/08 A3029 RMK AO2
KMLJ 180455Z AUTO 00000KT 10SM CLR 11/09 A3029 RMK AO2
KMLJ 180415Z AUTO 00000KT 10SM CLR 11/09 A3028 RMK AO2
KMLJ 180355Z AUTO 00000KT 10SM CLR 12/09 A3029 RMK AO2
KMLJ 180337Z AUTO 00000KT 10SM CLR 12/09 A3029 RMK AO2
KMLJ 180316Z AUTO 00000KT 10SM CLR 12/09 A3030 RMK AO2
KMLJ 180255Z AUTO 00000KT 10SM CLR 12/09 A3030 RMK AO2
KMLJ 180235Z AUTO 00000KT 10SM CLR 13/09 A3029 RMK AO2
KMLJ 180155Z AUTO 08005KT 10SM CLR 16/09 A3028 RMK AO2
KMLJ 180135Z AUTO 08004KT 10SM CLR 16/09 A3027 RMK AO2
KMLJ 180055Z AUTO 07004KT 10SM CLR 17/08 A3027 RMK AO2
KMLJ 180015Z AUTO 08005KT 10SM CLR 18/08 A3026 RMK AO2
KMLJ 172355Z AUTO 00000KT 10SM CLR 18/08 A3025 RMK AO2
KMLJ 172336Z AUTO 00000KT 10SM CLR 18/08 A3025 RMK AO2
KMLJ 172315Z AUTO 05003KT 10SM CLR 18/08 A3024 RMK AO2
KMLJ 172255Z AUTO 05003KT 10SM CLR 19/08 A3024 RMK AO2
KMLJ 172236Z AUTO 05003KT 10SM CLR 19/07 A3024 RMK AO2
KMLJ 172135Z AUTO 08004KT 10SM CLR 21/06 A3024 RMK AO2
KMLJ 172015Z AUTO 03006KT 10SM CLR 22/05 A3025 RMK AO2
KMLJ 171955Z AUTO 09006KT 10SM CLR 22/06 A3025 RMK AO2